createdAt,value
2022-11-22T00:00:53.703Z,99907.47
2022-11-22T00:01:56.605Z,99899.47
2022-11-22T00:03:01.410Z,99911.88
2022-11-22T00:04:04.157Z,99916.91
2022-11-22T00:05:06.985Z,99906.66
2022-11-22T00:06:10.899Z,99904.25
2022-11-22T00:07:13.783Z,99912.38
2022-11-22T00:08:22.126Z,99907.47
2022-11-22T00:09:25.234Z,99900.25
2022-11-22T00:10:28.111Z,99909.09
2022-11-22T00:11:32.177Z,99901.44
2022-11-22T00:12:35.153Z,99898.63
2022-11-22T00:13:38.552Z,99888.63
2022-11-22T00:14:41.237Z,99896.44
2022-11-22T00:15:45.708Z,99905.16
2022-11-22T00:16:48.521Z,99900.13
2022-11-22T00:17:51.474Z,99895.22
2022-11-22T00:18:54.399Z,99894.44
2022-11-22T00:19:58.468Z,99891.63
2022-11-22T00:21:09.330Z,99885.13
2022-11-22T00:22:11.972Z,99890.81
2022-11-22T00:23:17.127Z,99875.66
2022-11-22T00:24:20.255Z,99881.78
2022-11-22T00:25:23.584Z,99884.22
2022-11-22T00:26:26.469Z,99880.19
2022-11-22T00:27:29.537Z,99878.38
2022-11-22T00:28:35.084Z,99887.41
2022-11-22T00:29:38.230Z,99879.97
2022-11-22T00:30:41.253Z,99883.47
2022-11-22T00:31:43.944Z,99892.50
2022-11-22T00:32:46.605Z,99890.50
2022-11-22T00:33:49.464Z,99897.44
2022-11-22T00:34:53.490Z,99891.50
2022-11-22T00:35:56.226Z,99889.28
2022-11-22T00:36:58.880Z,99889.53
2022-11-22T00:38:02.374Z,99887.19
2022-11-22T00:39:07.882Z,99871.84
2022-11-22T00:40:11.173Z,99868.53
2022-11-22T00:41:16.942Z,99877.88
2022-11-22T00:42:19.582Z,99872.97
2022-11-22T00:43:23.414Z,99871.06
2022-11-22T00:44:26.682Z,99864.75
2022-11-22T00:45:29.567Z,99863.34
2022-11-22T00:46:32.469Z,99865.75
2022-11-22T00:47:37.019Z,99870.38
2022-11-22T00:48:40.243Z,99872.13
2022-11-22T00:49:43.265Z,99868.13
2022-11-22T00:50:49.556Z,99864.72
2022-11-22T00:51:52.217Z,99865.50
2022-11-22T00:52:57.964Z,99869.34
2022-11-22T00:54:01.598Z,99867.31
2022-11-22T00:55:04.596Z,99856.94
2022-11-22T00:56:09.539Z,99860.53
2022-11-22T00:57:12.531Z,99850.91
2022-11-22T00:58:15.559Z,99862.13
2022-11-22T00:59:19.834Z,99854.41
2022-11-22T01:00:22.944Z,99849.19
2022-11-22T01:01:25.880Z,99844.66
2022-11-22T01:02:29.641Z,99854.47
2022-11-22T01:03:32.545Z,99847.50
2022-11-22T01:04:35.505Z,99852.91
2022-11-22T01:05:38.250Z,99852.16
2022-11-22T01:06:42.786Z,99852.78
2022-11-22T01:07:45.806Z,99838.97
2022-11-22T01:08:49.928Z,99851.88
2022-11-22T01:09:52.966Z,99847.56
2022-11-22T01:10:59.531Z,99838.22
2022-11-22T01:12:02.624Z,99837.03
2022-11-22T01:13:06.597Z,99836.72
2022-11-22T01:14:10.350Z,99835.81
2022-11-22T01:15:15.374Z,99845.88
2022-11-22T01:16:18.065Z,99835.03
2022-11-22T01:17:20.738Z,99838.06
2022-11-22T01:18:23.379Z,99836.66
2022-11-22T01:19:26.517Z,99837.03
2022-11-22T01:20:31.134Z,99830.03
2022-11-22T01:21:34.251Z,99830.81
2022-11-22T01:22:36.863Z,99830.81
2022-11-22T01:23:39.646Z,99827.31
2022-11-22T01:24:43.125Z,99836.66
2022-11-22T01:25:45.815Z,99836.84
2022-11-22T01:26:48.745Z,99833.66
2022-11-22T01:27:51.499Z,99837.47
2022-11-22T01:28:54.550Z,99833.28
2022-11-22T01:29:57.354Z,99831.03
2022-11-22T01:31:00.013Z,99831.63
2022-11-22T01:32:02.572Z,99830.09
2022-11-22T01:33:05.244Z,99817.19
2022-11-22T01:34:08.325Z,99823.41
2022-11-22T01:35:12.167Z,99821.97
2022-11-22T01:36:18.851Z,99815.00
2022-11-22T01:37:22.092Z,99817.38
2022-11-22T01:38:25.318Z,99813.56
2022-11-22T01:39:28.835Z,99808.31
2022-11-22T01:40:33.087Z,99814.16
2022-11-22T01:41:37.261Z,99820.16
2022-11-22T01:42:49.603Z,99806.75
2022-11-22T01:43:54.904Z,99802.19
2022-11-22T01:45:31.181Z,99798.50
2022-11-22T01:46:39.583Z,99807.59
2022-11-22T01:47:42.922Z,99799.00
2022-11-22T01:49:00.230Z,99803.81
2022-11-22T01:50:07.993Z,99808.56
2022-11-22T01:51:30.335Z,99809.72
2022-11-22T01:52:35.065Z,99794.06
2022-11-22T01:53:39.810Z,99790.75
2022-11-22T01:54:50.917Z,99782.25
2022-11-22T01:55:55.876Z,99784.84
2022-11-22T01:57:02.848Z,99769.94
2022-11-22T01:58:08.328Z,99784.22
2022-11-22T01:59:15.124Z,99770.19
2022-11-22T02:00:19.893Z,99773.81
2022-11-22T02:01:23.398Z,99767.22
2022-11-22T02:02:28.078Z,99772.78
2022-11-22T02:03:33.914Z,99760.69
2022-11-22T02:04:38.256Z,99769.16
2022-11-22T02:05:42.325Z,99766.56
2022-11-22T02:07:06.375Z,99761.34
2022-11-22T02:08:19.021Z,99759.47
2022-11-22T02:09:23.191Z,99760.31
2022-11-22T02:10:29.714Z,99761.56
2022-11-22T02:11:34.432Z,99757.53
2022-11-22T02:12:37.765Z,99745.81
2022-11-22T02:13:44.956Z,99759.78
2022-11-22T02:14:48.143Z,99759.25
2022-11-22T02:15:52.413Z,99746.78
2022-11-22T02:16:56.814Z,99742.50
2022-11-22T02:17:59.858Z,99742.59
2022-11-22T02:19:02.969Z,99744.56
2022-11-22T02:20:07.955Z,99749.75
2022-11-22T02:21:11.529Z,99739.03
2022-11-22T02:22:33.266Z,99736.91
2022-11-22T02:23:57.459Z,99734.63
2022-11-22T02:25:30.225Z,99740.63
2022-11-22T02:26:35.217Z,99734.38
2022-11-22T02:27:42.179Z,99726.16
2022-11-22T02:28:45.783Z,99734.47
2022-11-22T02:29:51.485Z,99727.28
2022-11-22T02:30:56.937Z,99718.97
2022-11-22T02:32:00.012Z,99722.78
2022-11-22T02:33:08.782Z,99719.03
2022-11-22T02:34:13.573Z,99718.13
2022-11-22T02:35:26.211Z,99716.75
2022-11-22T02:36:35.907Z,99718.00
2022-11-22T02:37:42.398Z,99712.56
2022-11-22T02:38:49.638Z,99709.47
2022-11-22T02:40:00.016Z,99718.88
2022-11-22T02:41:07.721Z,99714.34
2022-11-22T02:42:15.167Z,99714.34
2022-11-22T02:43:27.201Z,99700.00
2022-11-22T02:44:31.201Z,99711.34
2022-11-22T02:45:34.688Z,99711.94
2022-11-22T02:46:47.435Z,99718.00
2022-11-22T02:47:50.724Z,99704.91
2022-11-22T02:48:58.602Z,99705.41
2022-11-22T02:50:02.554Z,99710.34
2022-11-22T02:51:10.292Z,99693.03
2022-11-22T02:52:19.913Z,99703.06
2022-11-22T02:53:29.475Z,99695.69
2022-11-22T02:54:33.578Z,99697.41
2022-11-22T02:55:37.326Z,99710.34
2022-11-22T02:56:41.371Z,99705.28
2022-11-22T02:57:44.761Z,99692.88
2022-11-22T02:58:48.573Z,99696.31
2022-11-22T02:59:51.995Z,99690.75
2022-11-22T03:00:55.924Z,99685.22
2022-11-22T03:02:03.779Z,99682.38
2022-11-22T03:03:08.496Z,99680.16
2022-11-22T03:04:25.351Z,99671.00
2022-11-22T03:05:29.079Z,99677.06
2022-11-22T03:06:35.016Z,99666.97
2022-11-22T03:07:38.623Z,99666.81
2022-11-22T03:08:45.250Z,99675.88
2022-11-22T03:09:49.495Z,99669.66
2022-11-22T03:10:54.482Z,99669.03
2022-11-22T03:12:00.836Z,99673.84
2022-11-22T03:13:10.850Z,99672.88
2022-11-22T03:14:19.557Z,99663.56
2022-11-22T03:15:25.842Z,99658.19
2022-11-22T03:16:31.217Z,99657.53
2022-11-22T03:17:35.219Z,99651.63
2022-11-22T03:18:39.414Z,99647.03
2022-11-22T03:19:45.672Z,99646.53
2022-11-22T03:20:49.626Z,99663.28
2022-11-22T03:21:57.292Z,99656.25
2022-11-22T03:23:01.600Z,99646.66
2022-11-22T03:24:12.766Z,99663.28
2022-11-22T03:25:24.150Z,99641.78
2022-11-22T03:26:27.860Z,99653.19
2022-11-22T03:27:32.484Z,99644.00
2022-11-22T03:28:37.487Z,99637.75
2022-11-22T03:29:41.978Z,99644.59
2022-11-22T03:30:44.968Z,99647.03
2022-11-22T03:31:50.054Z,99639.72
2022-11-22T03:32:56.247Z,99637.72
2022-11-22T03:34:09.467Z,99651.19
2022-11-22T03:35:15.908Z,99641.59
2022-11-22T03:36:19.145Z,99639.38
2022-11-22T03:37:29.722Z,99646.66
2022-11-22T03:38:35.425Z,99643.19
2022-11-22T03:39:38.541Z,99644.91
2022-11-22T03:40:41.203Z,99643.09
2022-11-22T03:41:44.431Z,99634.38
2022-11-22T03:42:48.214Z,99639.00
2022-11-22T03:43:51.290Z,99631.03
2022-11-22T03:44:54.439Z,99630.09
2022-11-22T03:45:57.627Z,99629.00
2022-11-22T03:47:00.134Z,99638.19
2022-11-22T03:48:06.394Z,99637.44
2022-11-22T03:49:12.300Z,99631.38
2022-11-22T03:50:16.531Z,99620.88
2022-11-22T03:51:19.677Z,99630.59
2022-11-22T03:52:22.177Z,99635.38
2022-11-22T03:53:25.449Z,99619.97
2022-11-22T03:54:30.883Z,99625.06
2022-11-22T03:55:33.962Z,99618.31
2022-11-22T03:56:37.023Z,99631.38
2022-11-22T03:57:39.938Z,99610.16
2022-11-22T03:58:42.816Z,99609.34
2022-11-22T03:59:47.313Z,99615.28
2022-11-22T04:00:51.094Z,99614.97
2022-11-22T04:01:55.501Z,99609.09
2022-11-22T04:02:58.724Z,99605.59
2022-11-22T04:04:01.339Z,99604.63
2022-11-22T04:05:04.317Z,99605.75
2022-11-22T04:06:09.626Z,99606.69
2022-11-22T04:07:15.470Z,99616.22
2022-11-22T04:08:19.099Z,99610.53
2022-11-22T04:09:22.971Z,99612.75
2022-11-22T04:10:28.462Z,99601.91
2022-11-22T04:11:33.813Z,99597.75
2022-11-22T04:12:37.891Z,99593.00
2022-11-22T04:13:58.991Z,99588.03
2022-11-22T04:15:08.211Z,99587.59
2022-11-22T04:16:10.841Z,99577.19
2022-11-22T04:17:35.442Z,99587.41
2022-11-22T04:18:40.464Z,99581.09
2022-11-22T04:20:03.165Z,99577.22
2022-11-22T04:21:29.147Z,99582.63
2022-11-22T04:22:32.163Z,99574.19
2022-11-22T04:23:35.537Z,99583.91
2022-11-22T04:24:57.447Z,99574.19
2022-11-22T04:26:03.838Z,99560.63
2022-11-22T04:27:07.802Z,99568.47
2022-11-22T04:28:11.942Z,99570.84
2022-11-22T04:29:24.604Z,99565.84
2022-11-22T04:30:52.114Z,99566.19
2022-11-22T04:32:18.102Z,99562.88
2022-11-22T04:33:25.745Z,99560.47
2022-11-22T04:34:31.367Z,99564.28
2022-11-22T04:35:47.029Z,99559.41
2022-11-22T04:37:01.143Z,99562.56
2022-11-22T04:38:07.941Z,99563.56
2022-11-22T04:39:11.683Z,99554.25
2022-11-22T04:40:18.846Z,99556.38
2022-11-22T04:41:26.083Z,99556.53
2022-11-22T04:43:01.007Z,99556.19
2022-11-22T04:44:23.774Z,99560.97
2022-11-22T04:45:28.941Z,99557.78
2022-11-22T04:46:35.258Z,99563.47
2022-11-22T04:47:58.717Z,99553.31
2022-11-22T04:49:03.552Z,99562.41
2022-11-22T04:50:38.540Z,99543.13
2022-11-22T04:52:01.193Z,99559.41
2022-11-22T04:53:10.292Z,99547.75
2022-11-22T04:54:15.343Z,99553.81
2022-11-22T04:55:18.701Z,99544.44
2022-11-22T04:56:34.578Z,99549.69
2022-11-22T04:57:39.338Z,99559.13
2022-11-22T04:58:44.279Z,99542.50
2022-11-22T04:59:54.095Z,99549.69
2022-11-22T05:01:04.678Z,99543.31
2022-11-22T05:02:09.578Z,99539.19
2022-11-22T05:03:17.794Z,99532.16
2022-11-22T05:04:23.136Z,99537.09
2022-11-22T05:05:29.516Z,99515.88
2022-11-22T05:06:34.438Z,99535.50
2022-11-22T05:07:38.006Z,99523.34
2022-11-22T05:08:44.933Z,99513.81
2022-11-22T05:09:52.280Z,99517.16
2022-11-22T05:10:58.683Z,99506.47
2022-11-22T05:12:06.571Z,99503.44
2022-11-22T05:13:10.648Z,99502.66
2022-11-22T05:14:15.967Z,99526.56
2022-11-22T05:15:26.736Z,99510.16
2022-11-22T05:16:32.609Z,99512.84
2022-11-22T05:17:38.640Z,99502.66
2022-11-22T05:18:42.656Z,99499.78
2022-11-22T05:19:49.454Z,99499.78
2022-11-22T05:20:53.334Z,99502.03
2022-11-22T05:21:57.764Z,99513.06
2022-11-22T05:23:19.328Z,99503.59
2022-11-22T05:24:26.810Z,99499.47
2022-11-22T05:25:31.654Z,99493.75
2022-11-22T05:27:04.943Z,99493.56
2022-11-22T05:28:11.969Z,99491.19
2022-11-22T05:29:27.981Z,99512.41
2022-11-22T05:30:37.922Z,99490.84
2022-11-22T05:31:50.994Z,99504.91
2022-11-22T05:33:00.900Z,99513.22
2022-11-22T05:34:12.985Z,99504.91
2022-11-22T05:35:15.696Z,99496.59
2022-11-22T05:36:18.772Z,99506.47
2022-11-22T05:37:23.107Z,99498.66
2022-11-22T05:38:27.399Z,99541.44
2022-11-22T05:39:34.969Z,99499.00
2022-11-22T05:40:38.427Z,99495.47
2022-11-22T05:41:56.241Z,99514.16
2022-11-22T05:43:07.477Z,99497.09
2022-11-22T05:44:11.916Z,99484.97
2022-11-22T05:45:21.776Z,99477.59
2022-11-22T05:46:31.146Z,99508.56
2022-11-22T05:47:39.253Z,99498.19
2022-11-22T05:48:47.927Z,99480.47
2022-11-22T05:49:54.244Z,99488.78
2022-11-22T05:50:59.201Z,99487.66
2022-11-22T05:52:03.270Z,99487.81
2022-11-22T05:53:11.023Z,99471.38
2022-11-22T05:54:16.754Z,99475.03
2022-11-22T05:55:31.394Z,99471.53
2022-11-22T05:57:12.573Z,99467.81
2022-11-22T06:00:21.044Z,99456.19
2022-11-22T06:02:01.638Z,99453.63
2022-11-22T06:03:15.205Z,99458.56
2022-11-22T06:04:24.969Z,99457.59
2022-11-22T06:05:32.102Z,99450.25
2022-11-22T06:06:34.655Z,99445.91
2022-11-22T06:07:41.157Z,99455.47
2022-11-22T06:09:03.384Z,99455.16
2022-11-22T06:10:10.640Z,99445.44
2022-11-22T06:11:22.670Z,99449.22
2022-11-22T06:12:29.440Z,99451.53
2022-11-22T06:13:43.869Z,99450.38
2022-11-22T06:14:46.789Z,99442.38
2022-11-22T06:16:02.727Z,99434.38
2022-11-22T06:17:06.605Z,99447.97
2022-11-22T06:18:14.197Z,99441.72
2022-11-22T06:19:16.956Z,99446.97
2022-11-22T06:20:24.699Z,99454.66
2022-11-22T06:21:36.511Z,99448.44
2022-11-22T07:23:31.188Z,99404.84
2022-11-22T07:24:33.648Z,99399.41
2022-11-22T07:25:36.312Z,99396.34
2022-11-22T07:26:38.885Z,99400.88
2022-11-22T07:27:41.411Z,99401.28
2022-11-22T07:28:50.178Z,99399.28
2022-11-22T07:29:52.854Z,99399.63
2022-11-22T07:31:00.840Z,99402.75
2022-11-22T07:32:04.069Z,99403.66
2022-11-22T07:33:08.190Z,99400.47
2022-11-22T07:34:11.090Z,99396.91
2022-11-22T07:35:13.810Z,99390.53
2022-11-22T07:36:21.365Z,99386.16
2022-11-22T07:37:27.198Z,99393.72
2022-11-22T07:38:30.314Z,99391.47
2022-11-22T07:39:40.005Z,99396.13
2022-11-22T08:43:16.429Z,99359.94
2022-11-22T08:44:20.550Z,99346.84
2022-11-22T08:45:26.083Z,99350.13
2022-11-22T08:46:31.172Z,99354.75
2022-11-22T08:47:38.895Z,99354.75
2022-11-22T08:48:45.102Z,99344.59
2022-11-22T08:55:17.114Z,99344.72
2022-11-22T08:56:21.615Z,99335.66
2022-11-22T08:57:27.518Z,99339.88
2022-11-22T08:58:41.478Z,99343.41
2022-11-22T08:59:52.292Z,99337.28
2022-11-22T09:01:10.844Z,99342.25
2022-11-22T09:02:14.881Z,99337.59
2022-11-22T09:03:20.634Z,99339.56
2022-11-22T09:04:26.459Z,99342.13
2022-11-22T09:05:31.204Z,99324.44
2022-11-22T09:13:30.564Z,99327.66
2022-11-22T09:14:40.086Z,99338.44
2022-11-22T09:15:45.705Z,99334.72
2022-11-22T09:33:41.038Z,99313.03
2022-11-22T09:34:51.732Z,99312.47
2022-11-22T09:36:05.010Z,99320.06
2022-11-22T09:37:09.071Z,99317.56
2022-11-22T09:38:17.246Z,99322.34
2022-11-22T09:39:23.419Z,99323.69
2022-11-22T09:40:26.018Z,99318.47
2022-11-22T09:42:11.786Z,99311.31
2022-11-22T09:44:03.534Z,99322.09
2022-11-22T09:45:48.255Z,99317.34
2022-11-22T09:47:10.822Z,99320.50
2022-11-22T09:48:23.009Z,99315.75
2022-11-22T09:49:37.349Z,99319.63
2022-11-22T09:51:23.526Z,99311.56
2022-11-22T09:52:36.381Z,99319.16
2022-11-22T09:53:50.941Z,99315.28
2022-11-22T09:55:13.721Z,99312.34
2022-11-22T09:56:23.001Z,99301.44
2022-11-22T09:57:51.248Z,99311.66
2022-11-22T09:59:08.770Z,99305.53
2022-11-22T10:00:35.852Z,99300.53
2022-11-22T10:05:22.310Z,99313.94
2022-11-22T10:06:41.241Z,99320.97
2022-11-22T10:07:55.273Z,99323.59
2022-11-22T10:09:39.310Z,99321.56
2022-11-22T10:10:53.007Z,99313.69
2022-11-22T10:12:03.080Z,99308.38
2022-11-22T10:15:36.312Z,99313.94
2022-11-22T10:16:53.497Z,99299.63
2022-11-22T10:18:04.858Z,99296.31
2022-11-22T10:19:32.611Z,99304.41
2022-11-22T10:20:47.304Z,99296.31
2022-11-22T10:21:58.366Z,99312.09
2022-11-22T10:23:06.460Z,99303.25
2022-11-22T10:24:18.052Z,99297.47
2022-11-22T10:25:40.240Z,99293.72
2022-11-22T10:35:45.974Z,99302.78
2022-11-22T10:46:13.898Z,99283.38
2022-11-22T10:47:47.680Z,99273.13
2022-11-22T10:49:31.846Z,99271.53
2022-11-22T10:51:12.937Z,99280.97
2022-11-22T10:53:13.278Z,99282.13
2022-11-22T10:55:06.512Z,99270.06
2022-11-22T10:56:52.235Z,99270.06
2022-11-22T10:58:19.725Z,99272.56
2022-11-22T10:59:43.200Z,99267.78
2022-11-22T11:01:01.412Z,99265.31
2022-11-22T11:02:38.522Z,99269.50
2022-11-22T11:03:49.894Z,99259.38
2022-11-22T11:05:05.366Z,99267.13
2022-11-22T11:23:27.786Z,99253.16
2022-11-22T11:24:32.675Z,99260.97
2022-11-22T11:25:41.070Z,99254.13
2022-11-22T11:53:26.928Z,99249.84
2022-11-22T11:54:44.655Z,99247.78
2022-11-22T11:55:47.449Z,99240.53
2022-11-22T11:56:57.985Z,99236.09
2022-11-22T11:58:04.133Z,99236.09
2022-11-22T11:59:16.644Z,99229.06
2022-11-22T12:00:26.325Z,99233.13
2022-11-22T12:01:38.948Z,99242.25
2022-11-22T12:02:46.826Z,99248.00
2022-11-22T12:03:59.058Z,99237.25
2022-11-22T12:05:34.948Z,99233.72
2022-11-22T12:06:43.709Z,99237.81
2022-11-22T12:07:52.988Z,99237.91
2022-11-22T12:09:01.040Z,99247.53
2022-11-22T12:10:27.359Z,99240.84
2022-11-22T12:11:49.192Z,99237.69
2022-11-22T12:13:13.562Z,99231.44
2022-11-22T12:14:37.572Z,99232.78
2022-11-22T12:16:10.916Z,99222.03
2022-11-22T12:17:31.917Z,99231.41
2022-11-22T12:18:58.815Z,99242.31
2022-11-22T12:20:22.192Z,99231.88
2022-11-22T12:21:40.029Z,99229.34
2022-11-22T12:23:11.438Z,99239.81
2022-11-22T12:24:48.767Z,99230.59
2022-11-22T12:26:02.791Z,99215.97
2022-11-22T15:12:40.529Z,99186.53
2022-11-22T15:14:03.841Z,99195.84
2022-11-22T15:58:21.385Z,99188.13
2022-11-22T15:59:47.324Z,99193.75
2022-11-22T16:01:19.173Z,99181.44
2022-11-22T16:04:31.356Z,99179.66
2022-11-22T16:06:04.368Z,99180.53
2022-11-22T16:07:53.891Z,99174.66
2022-11-22T16:09:15.716Z,99181.50
2022-11-22T16:10:45.848Z,99182.91
2022-11-22T16:12:04.340Z,99172.06
2022-11-22T16:13:48.667Z,99184.16
2022-11-22T16:15:27.528Z,99181.06
2022-11-22T16:16:36.338Z,99173.50
2022-11-22T16:17:59.172Z,99184.34
2022-11-22T16:19:25.386Z,99187.19
2022-11-22T16:20:37.766Z,99178.41
2022-11-22T16:21:56.562Z,99171.09
2022-11-22T16:25:33.859Z,99185.38
2022-11-22T16:26:55.459Z,99183.06
2022-11-22T16:31:33.255Z,99178.69
2022-11-22T17:12:45.319Z,99163.19
2022-11-22T17:13:49.854Z,99154.28
2022-11-22T17:14:54.124Z,99149.91
2022-11-22T17:16:02.319Z,99157.72
2022-11-22T17:17:08.155Z,99156.78
2022-11-22T17:18:13.379Z,99144.28
2022-11-22T17:19:51.635Z,99144.69
2022-11-22T17:20:52.204Z,99148.25
2022-11-22T17:21:58.445Z,99163.81
2022-11-22T17:24:11.254Z,99148.81
2022-11-22T17:25:20.580Z,99145.84
2022-11-22T17:28:06.888Z,99155.81
2022-11-22T17:29:57.845Z,99158.38
2022-11-22T17:31:47.323Z,99148.13
2022-11-22T17:54:54.614Z,99166.78
2022-11-22T18:04:32.217Z,99173.47
2022-11-22T18:05:40.953Z,99175.41
2022-11-22T18:08:21.899Z,99177.88
2022-11-22T18:09:53.345Z,99172.78
2022-11-22T18:11:05.807Z,99169.78
2022-11-22T18:12:14.290Z,99161.50
2022-11-22T18:13:29.268Z,99159.69
2022-11-22T18:15:03.534Z,99170.16
2022-11-22T18:16:45.006Z,99149.00
2022-11-22T18:18:55.114Z,99160.63
2022-11-22T18:26:41.091Z,99152.06
2022-11-22T18:30:55.567Z,99165.28
2022-11-22T18:32:34.384Z,99164.50
2022-11-22T18:33:57.662Z,99173.16
2022-11-22T18:35:30.390Z,99162.22
2022-11-22T18:37:19.880Z,99162.31
2022-11-22T18:38:31.641Z,99159.84
2022-11-22T18:40:11.378Z,99160.28
2022-11-22T18:44:36.526Z,99168.38
2022-11-22T18:46:22.030Z,99175.41
2022-11-22T18:47:35.109Z,99177.88
2022-11-22T18:48:50.523Z,99173.81
2022-11-22T18:50:12.249Z,99167.69
2022-11-22T18:53:17.180Z,99172.44
2022-11-22T18:54:31.664Z,99170.16
2022-11-22T18:57:04.539Z,99158.19
2022-11-22T18:59:07.859Z,99165.13
2022-11-22T19:01:33.302Z,99157.47
2022-11-22T19:02:52.937Z,99168.56
2022-11-22T19:04:07.354Z,99164.78
2022-11-22T19:05:13.923Z,99164.97
2022-11-22T19:06:31.105Z,99161.03
2022-11-22T19:07:52.111Z,99168.31
2022-11-22T19:09:21.852Z,99168.56
2022-11-22T19:11:05.361Z,99162.31
2022-11-22T19:12:18.030Z,99177.19
2022-11-22T19:13:44.203Z,99160.31
2022-11-22T19:14:58.263Z,99160.84
2022-11-22T19:16:15.415Z,99161.78
2022-11-22T19:17:22.050Z,99165.19
2022-11-22T19:18:31.466Z,99159.84
2022-11-22T19:19:40.607Z,99157.19
2022-11-22T19:20:55.087Z,99164.06
2022-11-22T19:22:01.146Z,99155.97
2022-11-22T19:23:11.052Z,99154.06
2022-11-22T19:29:09.866Z,99147.69
2022-11-22T19:30:18.028Z,99149.91
2022-11-22T19:31:37.490Z,99140.22
2022-11-22T19:32:49.369Z,99131.97
2022-11-22T19:34:00.035Z,99142.22
2022-11-22T19:35:16.966Z,99140.41
2022-11-22T19:36:33.142Z,99142.06
2022-11-22T19:37:40.236Z,99138.47
2022-11-22T19:38:46.819Z,99136.03
2022-11-22T19:40:02.458Z,99141.03
2022-11-22T19:41:10.092Z,99147.00
2022-11-22T19:43:57.392Z,99151.06
2022-11-22T19:45:09.320Z,99154.66
2022-11-22T19:46:13.455Z,99140.84
2022-11-22T19:47:21.721Z,99146.84
2022-11-22T19:52:24.293Z,99141.84
2022-11-22T19:55:47.821Z,99137.44
2022-11-22T19:56:52.059Z,99131.81
2022-11-22T19:57:58.703Z,99137.97
2022-11-22T19:59:11.934Z,99130.47
2022-11-22T20:00:26.834Z,99135.66
2022-11-22T20:01:44.357Z,99131.19
2022-11-22T20:08:24.087Z,99137.44
2022-11-22T20:09:41.585Z,99132.44
2022-11-22T20:13:26.816Z,99142.09
2022-11-22T20:17:45.017Z,99147.31
2022-11-22T20:20:28.051Z,99148.34
2022-11-22T20:21:42.342Z,99146.16
2022-11-22T20:23:09.442Z,99155.31
2022-11-22T20:24:45.336Z,99152.75
2022-11-22T20:27:24.360Z,99142.91
2022-11-22T20:34:48.077Z,99150.38
2022-11-22T20:36:04.358Z,99146.09
2022-11-22T20:37:10.321Z,99164.00
2022-11-22T20:38:22.893Z,99155.78
2022-11-22T20:42:05.896Z,99154.25
2022-11-22T20:43:17.341Z,99153.03
2022-11-22T20:44:54.076Z,99148.81
2022-11-22T20:46:07.012Z,99157.22
2022-11-22T20:47:13.236Z,99155.41
2022-11-22T20:48:19.834Z,99157.75
2022-11-22T20:49:31.203Z,99156.53
2022-11-22T21:02:47.937Z,99150.88
2022-11-22T21:06:05.675Z,99147.53
2022-11-22T21:09:27.555Z,99143.25
2022-11-22T21:11:20.007Z,99145.44
2022-11-22T21:12:29.367Z,99136.97
2022-11-22T21:13:59.497Z,99129.69
2022-11-22T21:15:27.658Z,99132.34
2022-11-22T21:20:48.659Z,99144.66
2022-11-22T21:21:59.813Z,99134.16
2022-11-22T21:23:07.432Z,99132.66
2022-11-22T21:24:15.719Z,99124.56
2022-11-22T21:25:23.207Z,99138.03
2022-11-22T21:35:45.765Z,99123.25
2022-11-22T21:37:04.030Z,99119.47
2022-11-22T21:39:39.559Z,99116.84
2022-11-22T21:41:10.763Z,99120.09
2022-11-22T21:42:24.205Z,99107.50
2022-11-22T21:43:50.044Z,99109.28
2022-11-22T21:45:07.210Z,99117.47
2022-11-22T21:46:29.221Z,99120.03
2022-11-22T21:47:57.532Z,99121.75
2022-11-22T21:49:37.075Z,99119.47
2022-11-22T21:51:12.360Z,99117.47
2022-11-22T21:54:08.044Z,99124.06
2022-11-22T21:55:27.790Z,99120.97
2022-11-22T21:57:06.928Z,99108.38
2022-11-22T21:58:45.656Z,99123.88
2022-11-22T22:04:00.458Z,99123.16
2022-11-22T22:05:08.011Z,99119.31
2022-11-22T22:06:14.170Z,99126.88
2022-11-22T22:07:51.542Z,99116.22
2022-11-22T22:08:52.912Z,99122.22
2022-11-22T22:10:00.396Z,99123.97
2022-11-22T22:11:07.995Z,99122.91
2022-11-22T22:12:16.543Z,99115.97
2022-11-22T22:13:38.070Z,99109.00
2022-11-22T22:14:48.594Z,99110.75
2022-11-22T22:15:58.651Z,99109.19
2022-11-22T22:17:08.639Z,99103.97
2022-11-22T22:18:19.466Z,99104.25
2022-11-22T22:19:28.440Z,99109.09
2022-11-22T22:20:45.699Z,99099.22
2022-11-22T22:21:53.878Z,99104.69
2022-11-22T22:22:59.559Z,99100.00
2022-11-22T22:24:07.503Z,99106.78
2022-11-22T22:25:24.866Z,99097.06
2022-11-22T22:26:35.581Z,99092.00
2022-11-22T22:27:39.688Z,99084.28
2022-11-22T22:28:46.405Z,99087.19
2022-11-22T22:29:53.918Z,99088.03
2022-11-22T22:31:11.411Z,99077.88
2022-11-22T22:32:15.861Z,99081.72
2022-11-22T22:33:22.199Z,99075.63
2022-11-22T22:34:26.469Z,99075.47
2022-11-22T22:36:57.107Z,99072.31
2022-11-22T22:38:18.188Z,99073.81
2022-11-22T22:39:24.665Z,99073.88
2022-11-22T22:40:31.789Z,99077.78
2022-11-22T22:42:57.256Z,99083.63
2022-11-22T22:44:01.666Z,99084.88
2022-11-22T22:45:06.533Z,99086.38
2022-11-22T22:46:20.259Z,99089.56
2022-11-22T22:47:34.793Z,99087.09
2022-11-22T22:48:47.290Z,99081.56
2022-11-22T22:49:52.775Z,99076.28
2022-11-22T22:51:02.638Z,99081.38
2022-11-22T22:52:07.385Z,99079.41
2022-11-22T22:53:20.571Z,99084.97
2022-11-22T22:54:26.232Z,99082.88
2022-11-22T22:55:32.010Z,99087.09
2022-11-22T22:56:37.076Z,99083.56
2022-11-22T22:57:41.249Z,99085.94
2022-11-22T22:58:57.033Z,99083.31
2022-11-22T23:00:28.250Z,99078.53
2022-11-22T23:01:40.413Z,99079.84
2022-11-22T23:02:47.589Z,99081.78
2022-11-22T23:03:59.704Z,99078.09
2022-11-22T23:05:09.002Z,99078.09
2022-11-22T23:06:18.097Z,99078.53
2022-11-22T23:07:22.670Z,99072.97
2022-11-22T23:08:39.658Z,99068.25
2022-11-22T23:09:51.364Z,99069.97
2022-11-22T23:11:48.581Z,99069.66
2022-11-22T23:12:57.082Z,99073.72
2022-11-22T23:15:57.752Z,99065.63
2022-11-22T23:17:06.147Z,99063.22
2022-11-22T23:18:42.518Z,99061.50
2022-11-22T23:19:49.587Z,99067.72
2022-11-22T23:21:00.304Z,99066.22
2022-11-22T23:22:07.486Z,99066.13
2022-11-22T23:23:15.166Z,99062.44
2022-11-22T23:24:24.871Z,99069.75
2022-11-22T23:25:32.324Z,99067.91
2022-11-22T23:26:45.296Z,99070.19
2022-11-22T23:27:51.581Z,99066.66
2022-11-22T23:29:01.945Z,99074.03
2022-11-22T23:30:16.038Z,99069.81
2022-11-22T23:31:21.294Z,99081.28
2022-11-22T23:32:35.232Z,99065.63
2022-11-22T23:33:45.818Z,99068.47
2022-11-22T23:35:16.943Z,99076.69
2022-11-22T23:36:27.394Z,99075.91
2022-11-22T23:37:49.020Z,99077.59
2022-11-22T23:39:01.269Z,99084.88
2022-11-22T23:40:11.827Z,99078.81
2022-11-22T23:41:26.982Z,99078.00
2022-11-22T23:42:35.082Z,99085.31
2022-11-22T23:44:09.255Z,99072.91
2022-11-22T23:46:50.727Z,99072.63
2022-11-22T23:47:59.185Z,99070.63
2022-11-22T23:49:34.169Z,99069.81
2022-11-22T23:50:42.048Z,99069.66
2022-11-22T23:51:48.264Z,99068.94
2022-11-22T23:53:03.832Z,99065.25
2022-11-22T23:54:11.330Z,99064.19
2022-11-22T23:55:28.561Z,99056.44
2022-11-22T23:56:38.852Z,99055.91
2022-11-22T23:57:51.348Z,99059.78
2022-11-22T23:58:59.184Z,99056.25
